sensor_id;sensor_type;location;lat;lon;timestamp;P1;durP1;ratioP1;P2;durP2;ratioP2
15055;SDS011;7626;42.674;23.284;2022-09-29T00:00:23;5.40;;;3.90;;
15055;SDS011;7626;42.674;23.284;2022-09-29T00:02:51;4.90;;;4.00;;
15055;SDS011;7626;42.674;23.284;2022-09-29T00:05:18;7.93;;;5.13;;
15055;SDS011;7626;42.674;23.284;2022-09-29T00:07:45;8.27;;;4.43;;
15055;SDS011;7626;42.674;23.284;2022-09-29T00:10:12;6.70;;;3.87;;
15055;SDS011;7626;42.674;23.284;2022-09-29T00:12:39;8.30;;;4.57;;
15055;SDS011;7626;42.674;23.284;2022-09-29T00:15:06;8.13;;;4.10;;
15055;SDS011;7626;42.674;23.284;2022-09-29T00:17:34;5.73;;;3.80;;
15055;SDS011;7626;42.674;23.284;2022-09-29T00:20:01;6.03;;;3.73;;
15055;SDS011;7626;42.674;23.284;2022-09-29T00:22:29;5.40;;;3.67;;
15055;SDS011;7626;42.674;23.284;2022-09-29T00:24:56;6.00;;;3.70;;
15055;SDS011;7626;42.674;23.284;2022-09-29T00:27:22;6.57;;;3.97;;
15055;SDS011;7626;42.674;23.284;2022-09-29T00:29:50;4.57;;;3.40;;
15055;SDS011;7626;42.674;23.284;2022-09-29T00:32:17;5.73;;;4.03;;
15055;SDS011;7626;42.674;23.284;2022-09-29T00:34:45;4.97;;;3.93;;
15055;SDS011;7626;42.674;23.284;2022-09-29T00:37:12;4.70;;;3.70;;
15055;SDS011;7626;42.674;23.284;2022-09-29T00:39:38;6.13;;;3.87;;
15055;SDS011;7626;42.674;23.284;2022-09-29T00:42:05;4.53;;;3.60;;
15055;SDS011;7626;42.674;23.284;2022-09-29T00:47:25;5.80;;;3.60;;
15055;SDS011;7626;42.674;23.284;2022-09-29T00:49:55;6.30;;;4.10;;
15055;SDS011;7626;42.674;23.284;2022-09-29T00:52:27;5.47;;;3.73;;
15055;SDS011;7626;42.674;23.284;2022-09-29T00:54:59;5.27;;;3.33;;
15055;SDS011;7626;42.674;23.284;2022-09-29T00:57:30;5.70;;;4.03;;
15055;SDS011;7626;42.674;23.284;2022-09-29T01:00:03;6.47;;;3.90;;
15055;SDS011;7626;42.674;23.284;2022-09-29T01:02:32;5.70;;;4.27;;
15055;SDS011;7626;42.674;23.284;2022-09-29T01:05:05;5.87;;;3.80;;
15055;SDS011;7626;42.674;23.284;2022-09-29T01:07:37;5.20;;;3.70;;
15055;SDS011;7626;42.674;23.284;2022-09-29T01:10:05;4.60;;;3.97;;
15055;SDS011;7626;42.674;23.284;2022-09-29T01:12:33;4.30;;;3.50;;
15055;SDS011;7626;42.674;23.284;2022-09-29T01:15:01;7.07;;;4.10;;
15055;SDS011;7626;42.674;23.284;2022-09-29T01:17:27;4.80;;;4.00;;
15055;SDS011;7626;42.674;23.284;2022-09-29T01:19:56;5.37;;;3.83;;
15055;SDS011;7626;42.674;23.284;2022-09-29T01:22:43;5.60;;;3.70;;
15055;SDS011;7626;42.674;23.284;2022-09-29T01:25:36;5.97;;;3.67;;
15055;SDS011;7626;42.674;23.284;2022-09-29T01:28:28;4.40;;;3.60;;
15055;SDS011;7626;42.674;23.284;2022-09-29T01:31:18;4.53;;;3.87;;
15055;SDS011;7626;42.674;23.284;2022-09-29T01:33:56;4.63;;;3.73;;
15055;SDS011;7626;42.674;23.284;2022-09-29T01:36:34;6.63;;;3.80;;
15055;SDS011;7626;42.674;23.284;2022-09-29T01:39:11;4.50;;;3.60;;
15055;SDS011;7626;42.674;23.284;2022-09-29T01:41:43;4.83;;;4.00;;
15055;SDS011;7626;42.674;23.284;2022-09-29T01:44:18;5.40;;;4.20;;
15055;SDS011;7626;42.674;23.284;2022-09-29T01:46:51;7.07;;;4.33;;
15055;SDS011;7626;42.674;23.284;2022-09-29T01:49:22;4.60;;;3.77;;
15055;SDS011;7626;42.674;23.284;2022-09-29T01:51:53;4.93;;;4.23;;
15055;SDS011;7626;42.674;23.284;2022-09-29T01:54:26;5.10;;;3.97;;
15055;SDS011;7626;42.674;23.284;2022-09-29T01:56:57;5.73;;;3.97;;
15055;SDS011;7626;42.674;23.284;2022-09-29T01:59:27;5.37;;;4.10;;
15055;SDS011;7626;42.674;23.284;2022-09-29T02:02:10;4.77;;;3.53;;
15055;SDS011;7626;42.674;23.284;2022-09-29T02:04:41;7.03;;;4.37;;
15055;SDS011;7626;42.674;23.284;2022-09-29T02:07:14;6.00;;;4.03;;
15055;SDS011;7626;42.674;23.284;2022-09-29T02:09:46;5.57;;;3.93;;
15055;SDS011;7626;42.674;23.284;2022-09-29T02:12:21;7.53;;;4.63;;
15055;SDS011;7626;42.674;23.284;2022-09-29T02:14:53;4.33;;;3.93;;
15055;SDS011;7626;42.674;23.284;2022-09-29T02:17:23;4.50;;;3.87;;
15055;SDS011;7626;42.674;23.284;2022-09-29T02:19:55;5.70;;;4.50;;
15055;SDS011;7626;42.674;23.284;2022-09-29T02:22:22;8.23;;;4.23;;
15055;SDS011;7626;42.674;23.284;2022-09-29T02:24:49;6.03;;;4.00;;
15055;SDS011;7626;42.674;23.284;2022-09-29T02:27:20;6.80;;;3.90;;
15055;SDS011;7626;42.674;23.284;2022-09-29T02:29:48;7.60;;;4.30;;
15055;SDS011;7626;42.674;23.284;2022-09-29T02:32:16;5.83;;;4.10;;
15055;SDS011;7626;42.674;23.284;2022-09-29T02:34:46;6.93;;;4.17;;
15055;SDS011;7626;42.674;23.284;2022-09-29T02:37:24;5.20;;;3.60;;
15055;SDS011;7626;42.674;23.284;2022-09-29T02:40:03;5.67;;;3.90;;
15055;SDS011;7626;42.674;23.284;2022-09-29T02:42:45;5.93;;;3.50;;
15055;SDS011;7626;42.674;23.284;2022-09-29T02:45:24;6.57;;;3.60;;
15055;SDS011;7626;42.674;23.284;2022-09-29T02:48:22;6.90;;;3.80;;
15055;SDS011;7626;42.674;23.284;2022-09-29T02:51:06;6.53;;;4.57;;
15055;SDS011;7626;42.674;23.284;2022-09-29T02:53:44;4.00;;;3.40;;
15055;SDS011;7626;42.674;23.284;2022-09-29T02:56:30;5.03;;;3.73;;
15055;SDS011;7626;42.674;23.284;2022-09-29T02:59:07;3.87;;;3.37;;
15055;SDS011;7626;42.674;23.284;2022-09-29T03:01:46;5.80;;;3.87;;
15055;SDS011;7626;42.674;23.284;2022-09-29T03:04:14;5.53;;;3.30;;
15055;SDS011;7626;42.674;23.284;2022-09-29T03:06:42;3.33;;;3.03;;
15055;SDS011;7626;42.674;23.284;2022-09-29T03:09:09;5.10;;;3.30;;
15055;SDS011;7626;42.674;23.284;2022-09-29T03:11:36;3.87;;;3.10;;
15055;SDS011;7626;42.674;23.284;2022-09-29T03:14:03;6.07;;;3.30;;
15055;SDS011;7626;42.674;23.284;2022-09-29T03:16:31;5.37;;;3.33;;
15055;SDS011;7626;42.674;23.284;2022-09-29T03:18:59;5.63;;;3.30;;
15055;SDS011;7626;42.674;23.284;2022-09-29T03:21:25;6.03;;;3.63;;
15055;SDS011;7626;42.674;23.284;2022-09-29T03:23:54;4.87;;;3.20;;
15055;SDS011;7626;42.674;23.284;2022-09-29T03:26:20;5.00;;;3.50;;
15055;SDS011;7626;42.674;23.284;2022-09-29T03:28:48;4.60;;;3.10;;
15055;SDS011;7626;42.674;23.284;2022-09-29T03:31:14;4.73;;;3.70;;
15055;SDS011;7626;42.674;23.284;2022-09-29T03:33:41;4.63;;;3.30;;
15055;SDS011;7626;42.674;23.284;2022-09-29T03:36:08;5.43;;;3.20;;
15055;SDS011;7626;42.674;23.284;2022-09-29T03:38:36;3.63;;;3.30;;
15055;SDS011;7626;42.674;23.284;2022-09-29T03:41:04;3.70;;;3.20;;
15055;SDS011;7626;42.674;23.284;2022-09-29T03:43:32;4.93;;;3.70;;
15055;SDS011;7626;42.674;23.284;2022-09-29T03:45:58;6.00;;;4.20;;
15055;SDS011;7626;42.674;23.284;2022-09-29T03:48:25;5.63;;;3.90;;
15055;SDS011;7626;42.674;23.284;2022-09-29T03:50:55;5.13;;;3.97;;
15055;SDS011;7626;42.674;23.284;2022-09-29T03:53:22;4.73;;;3.70;;
15055;SDS011;7626;42.674;23.284;2022-09-29T03:55:49;4.23;;;3.50;;
15055;SDS011;7626;42.674;23.284;2022-09-29T03:58:18;6.57;;;4.00;;
15055;SDS011;7626;42.674;23.284;2022-09-29T04:00:46;5.73;;;4.23;;
15055;SDS011;7626;42.674;23.284;2022-09-29T04:03:13;7.10;;;3.50;;
15055;SDS011;7626;42.674;23.284;2022-09-29T04:05:40;5.80;;;3.47;;
15055;SDS011;7626;42.674;23.284;2022-09-29T04:08:07;5.93;;;3.90;;
15055;SDS011;7626;42.674;23.284;2022-09-29T04:10:34;5.67;;;3.70;;
15055;SDS011;7626;42.674;23.284;2022-09-29T04:13:02;7.43;;;3.83;;
15055;SDS011;7626;42.674;23.284;2022-09-29T04:15:30;4.53;;;3.73;;
15055;SDS011;7626;42.674;23.284;2022-09-29T04:17:57;7.70;;;3.60;;
15055;SDS011;7626;42.674;23.284;2022-09-29T04:20:25;7.90;;;4.07;;
15055;SDS011;7626;42.674;23.284;2022-09-29T04:22:52;4.63;;;3.67;;
15055;SDS011;7626;42.674;23.284;2022-09-29T04:25:19;8.13;;;3.90;;
15055;SDS011;7626;42.674;23.284;2022-09-29T04:27:46;5.47;;;3.60;;
15055;SDS011;7626;42.674;23.284;2022-09-29T04:30:13;5.10;;;3.57;;
15055;SDS011;7626;42.674;23.284;2022-09-29T04:32:41;6.17;;;3.77;;
15055;SDS011;7626;42.674;23.284;2022-09-29T04:35:08;7.13;;;3.77;;
15055;SDS011;7626;42.674;23.284;2022-09-29T04:37:35;6.13;;;4.03;;
15055;SDS011;7626;42.674;23.284;2022-09-29T04:40:02;4.30;;;3.87;;
15055;SDS011;7626;42.674;23.284;2022-09-29T04:42:30;5.07;;;3.70;;
15055;SDS011;7626;42.674;23.284;2022-09-29T04:44:58;5.70;;;3.60;;
15055;SDS011;7626;42.674;23.284;2022-09-29T04:47:24;5.67;;;3.70;;
15055;SDS011;7626;42.674;23.284;2022-09-29T04:49:52;7.87;;;4.20;;
15055;SDS011;7626;42.674;23.284;2022-09-29T04:52:19;6.07;;;3.77;;
15055;SDS011;7626;42.674;23.284;2022-09-29T04:54:46;11.50;;;4.30;;
15055;SDS011;7626;42.674;23.284;2022-09-29T04:57:13;13.67;;;4.53;;
15055;SDS011;7626;42.674;23.284;2022-09-29T04:59:39;5.73;;;4.33;;
15055;SDS011;7626;42.674;23.284;2022-09-29T05:02:06;8.77;;;4.70;;
15055;SDS011;7626;42.674;23.284;2022-09-29T05:04:33;7.30;;;5.00;;
15055;SDS011;7626;42.674;23.284;2022-09-29T05:07:01;7.50;;;5.00;;
15055;SDS011;7626;42.674;23.284;2022-09-29T05:09:28;9.17;;;5.43;;
15055;SDS011;7626;42.674;23.284;2022-09-29T05:11:55;6.73;;;5.30;;
15055;SDS011;7626;42.674;23.284;2022-09-29T05:14:21;6.57;;;4.60;;
15055;SDS011;7626;42.674;23.284;2022-09-29T05:16:48;8.47;;;4.90;;
15055;SDS011;7626;42.674;23.284;2022-09-29T05:19:15;13.07;;;5.10;;
15055;SDS011;7626;42.674;23.284;2022-09-29T05:21:41;6.47;;;4.87;;
15055;SDS011;7626;42.674;23.284;2022-09-29T05:24:10;6.30;;;4.87;;
15055;SDS011;7626;42.674;23.284;2022-09-29T05:26:36;8.87;;;4.87;;
15055;SDS011;7626;42.674;23.284;2022-09-29T05:29:03;8.43;;;5.77;;
15055;SDS011;7626;42.674;23.284;2022-09-29T05:31:30;8.30;;;5.33;;
15055;SDS011;7626;42.674;23.284;2022-09-29T05:33:57;7.80;;;4.97;;
15055;SDS011;7626;42.674;23.284;2022-09-29T05:36:24;8.93;;;5.27;;
15055;SDS011;7626;42.674;23.284;2022-09-29T05:38:51;7.27;;;5.90;;
15055;SDS011;7626;42.674;23.284;2022-09-29T05:41:19;9.17;;;5.77;;
15055;SDS011;7626;42.674;23.284;2022-09-29T05:43:47;14.27;;;5.90;;
15055;SDS011;7626;42.674;23.284;2022-09-29T05:46:15;22.73;;;12.80;;
15055;SDS011;7626;42.674;23.284;2022-09-29T05:48:42;14.33;;;9.80;;
15055;SDS011;7626;42.674;23.284;2022-09-29T05:51:10;10.47;;;7.00;;
15055;SDS011;7626;42.674;23.284;2022-09-29T05:53:38;15.73;;;6.77;;
15055;SDS011;7626;42.674;23.284;2022-09-29T05:56:06;12.90;;;6.80;;
15055;SDS011;7626;42.674;23.284;2022-09-29T05:58:34;10.17;;;6.70;;
15055;SDS011;7626;42.674;23.284;2022-09-29T06:01:04;11.33;;;6.70;;
15055;SDS011;7626;42.674;23.284;2022-09-29T06:03:31;10.83;;;7.30;;
15055;SDS011;7626;42.674;23.284;2022-09-29T06:06:03;14.13;;;7.30;;
15055;SDS011;7626;42.674;23.284;2022-09-29T06:08:30;11.93;;;6.67;;
15055;SDS011;7626;42.674;23.284;2022-09-29T06:11:01;12.93;;;7.57;;
15055;SDS011;7626;42.674;23.284;2022-09-29T06:13:29;10.90;;;6.93;;
15055;SDS011;7626;42.674;23.284;2022-09-29T06:15:58;11.83;;;7.20;;
15055;SDS011;7626;42.674;23.284;2022-09-29T06:18:25;12.50;;;6.83;;
15055;SDS011;7626;42.674;23.284;2022-09-29T06:20:52;11.43;;;6.30;;
15055;SDS011;7626;42.674;23.284;2022-09-29T06:23:19;9.27;;;5.73;;
15055;SDS011;7626;42.674;23.284;2022-09-29T06:25:45;11.73;;;5.47;;
15055;SDS011;7626;42.674;23.284;2022-09-29T06:28:12;10.03;;;5.90;;
15055;SDS011;7626;42.674;23.284;2022-09-29T06:30:39;8.40;;;5.23;;
15055;SDS011;7626;42.674;23.284;2022-09-29T06:33:07;9.63;;;5.70;;
15055;SDS011;7626;42.674;23.284;2022-09-29T06:35:35;10.97;;;5.70;;
15055;SDS011;7626;42.674;23.284;2022-09-29T06:38:19;8.67;;;5.40;;
15055;SDS011;7626;42.674;23.284;2022-09-29T06:40:46;7.20;;;5.00;;
15055;SDS011;7626;42.674;23.284;2022-09-29T06:43:14;10.17;;;5.30;;
15055;SDS011;7626;42.674;23.284;2022-09-29T06:45:41;5.33;;;4.80;;
15055;SDS011;7626;42.674;23.284;2022-09-29T06:48:09;7.20;;;4.80;;
15055;SDS011;7626;42.674;23.284;2022-09-29T06:50:36;7.13;;;4.43;;
15055;SDS011;7626;42.674;23.284;2022-09-29T06:53:02;6.00;;;4.20;;
15055;SDS011;7626;42.674;23.284;2022-09-29T06:55:29;4.90;;;4.00;;
15055;SDS011;7626;42.674;23.284;2022-09-29T06:57:59;5.03;;;4.00;;
15055;SDS011;7626;42.674;23.284;2022-09-29T07:00:26;6.37;;;3.73;;
15055;SDS011;7626;42.674;23.284;2022-09-29T07:02:52;6.50;;;4.87;;
15055;SDS011;7626;42.674;23.284;2022-09-29T07:05:21;10.40;;;4.53;;
15055;SDS011;7626;42.674;23.284;2022-09-29T07:07:47;6.97;;;4.53;;
15055;SDS011;7626;42.674;23.284;2022-09-29T07:10:14;6.93;;;5.10;;
15055;SDS011;7626;42.674;23.284;2022-09-29T07:12:41;9.60;;;6.60;;
15055;SDS011;7626;42.674;23.284;2022-09-29T07:15:09;7.00;;;5.70;;
15055;SDS011;7626;42.674;23.284;2022-09-29T07:17:36;11.03;;;5.80;;
15055;SDS011;7626;42.674;23.284;2022-09-29T07:20:03;7.37;;;5.67;;
15055;SDS011;7626;42.674;23.284;2022-09-29T07:22:32;7.97;;;5.93;;
15055;SDS011;7626;42.674;23.284;2022-09-29T07:24:59;9.73;;;5.40;;
15055;SDS011;7626;42.674;23.284;2022-09-29T07:27:26;8.50;;;5.20;;
15055;SDS011;7626;42.674;23.284;2022-09-29T07:29:53;8.57;;;5.30;;
15055;SDS011;7626;42.674;23.284;2022-09-29T07:32:20;8.40;;;5.57;;
15055;SDS011;7626;42.674;23.284;2022-09-29T07:34:46;8.77;;;5.10;;
15055;SDS011;7626;42.674;23.284;2022-09-29T07:37:13;8.73;;;6.30;;
15055;SDS011;7626;42.674;23.284;2022-09-29T07:39:41;8.80;;;5.28;;
15055;SDS011;7626;42.674;23.284;2022-09-29T07:42:08;14.13;;;9.60;;
15055;SDS011;7626;42.674;23.284;2022-09-29T07:44:35;9.43;;;6.45;;
15055;SDS011;7626;42.674;23.284;2022-09-29T07:47:01;9.13;;;5.43;;
15055;SDS011;7626;42.674;23.284;2022-09-29T07:49:28;9.20;;;5.10;;
15055;SDS011;7626;42.674;23.284;2022-09-29T07:51:55;11.20;;;4.72;;
15055;SDS011;7626;42.674;23.284;2022-09-29T07:54:22;9.57;;;5.50;;
15055;SDS011;7626;42.674;23.284;2022-09-29T07:56:50;7.10;;;4.65;;
15055;SDS011;7626;42.674;23.284;2022-09-29T07:59:17;7.68;;;4.90;;
15055;SDS011;7626;42.674;23.284;2022-09-29T08:01:43;7.40;;;4.47;;
15055;SDS011;7626;42.674;23.284;2022-09-29T08:04:10;5.32;;;4.82;;
15055;SDS011;7626;42.674;23.284;2022-09-29T08:06:37;7.72;;;4.90;;
15055;SDS011;7626;42.674;23.284;2022-09-29T08:09:06;10.25;;;5.57;;
15055;SDS011;7626;42.674;23.284;2022-09-29T08:11:33;9.38;;;5.15;;
15055;SDS011;7626;42.674;23.284;2022-09-29T08:14:04;7.70;;;4.97;;
15055;SDS011;7626;42.674;23.284;2022-09-29T08:16:31;7.38;;;4.13;;
15055;SDS011;7626;42.674;23.284;2022-09-29T08:19:16;8.50;;;4.53;;
15055;SDS011;7626;42.674;23.284;2022-09-29T08:21:42;6.65;;;4.45;;
15055;SDS011;7626;42.674;23.284;2022-09-29T08:24:14;6.63;;;4.45;;
15055;SDS011;7626;42.674;23.284;2022-09-29T08:26:42;6.82;;;4.88;;
15055;SDS011;7626;42.674;23.284;2022-09-29T08:29:11;6.57;;;4.72;;
15055;SDS011;7626;42.674;23.284;2022-09-29T08:31:39;6.75;;;4.60;;
15055;SDS011;7626;42.674;23.284;2022-09-29T08:34:07;5.68;;;4.40;;
15055;SDS011;7626;42.674;23.284;2022-09-29T08:36:34;8.10;;;4.55;;
15055;SDS011;7626;42.674;23.284;2022-09-29T08:39:02;7.80;;;5.00;;
15055;SDS011;7626;42.674;23.284;2022-09-29T08:41:32;6.43;;;4.97;;
15055;SDS011;7626;42.674;23.284;2022-09-29T08:44:11;8.70;;;4.45;;
15055;SDS011;7626;42.674;23.284;2022-09-29T08:46:43;8.30;;;4.85;;
15055;SDS011;7626;42.674;23.284;2022-09-29T08:49:14;8.43;;;4.50;;
15055;SDS011;7626;42.674;23.284;2022-09-29T08:51:45;7.20;;;4.10;;
15055;SDS011;7626;42.674;23.284;2022-09-29T08:54:20;8.88;;;4.35;;
15055;SDS011;7626;42.674;23.284;2022-09-29T08:56:53;6.60;;;4.00;;
15055;SDS011;7626;42.674;23.284;2022-09-29T08:59:21;7.32;;;4.25;;
15055;SDS011;7626;42.674;23.284;2022-09-29T09:01:52;13.02;;;4.63;;
15055;SDS011;7626;42.674;23.284;2022-09-29T09:04:44;9.75;;;3.92;;
15055;SDS011;7626;42.674;23.284;2022-09-29T09:07:23;5.22;;;3.85;;
15055;SDS011;7626;42.674;23.284;2022-09-29T09:10:00;8.40;;;3.65;;
15055;SDS011;7626;42.674;23.284;2022-09-29T09:15:53;8.98;;;3.80;;
15055;SDS011;7626;42.674;23.284;2022-09-29T09:18:49;5.65;;;3.17;;
15055;SDS011;7626;42.674;23.284;2022-09-29T09:21:39;6.32;;;3.55;;
15055;SDS011;7626;42.674;23.284;2022-09-29T09:24:10;6.68;;;3.67;;
15055;SDS011;7626;42.674;23.284;2022-09-29T09:26:48;4.33;;;2.70;;
15055;SDS011;7626;42.674;23.284;2022-09-29T09:29:17;4.73;;;3.17;;
15055;SDS011;7626;42.674;23.284;2022-09-29T09:31:51;5.03;;;3.23;;
15055;SDS011;7626;42.674;23.284;2022-09-29T09:34:22;4.87;;;2.63;;
15055;SDS011;7626;42.674;23.284;2022-09-29T09:36:55;7.53;;;3.63;;
15055;SDS011;7626;42.674;23.284;2022-09-29T09:39:26;5.13;;;3.03;;
15055;SDS011;7626;42.674;23.284;2022-09-29T09:41:56;7.00;;;3.63;;
15055;SDS011;7626;42.674;23.284;2022-09-29T09:44:27;5.03;;;3.15;;
15055;SDS011;7626;42.674;23.284;2022-09-29T09:47:00;4.35;;;2.97;;
15055;SDS011;7626;42.674;23.284;2022-09-29T09:49:30;5.30;;;3.53;;
15055;SDS011;7626;42.674;23.284;2022-09-29T09:52:02;5.05;;;3.58;;
15055;SDS011;7626;42.674;23.284;2022-09-29T09:54:37;5.38;;;2.55;;
15055;SDS011;7626;42.674;23.284;2022-09-29T09:57:12;2.95;;;2.60;;
15055;SDS011;7626;42.674;23.284;2022-09-29T09:59:58;5.85;;;2.63;;
15055;SDS011;7626;42.674;23.284;2022-09-29T10:02:38;3.30;;;2.15;;
15055;SDS011;7626;42.674;23.284;2022-09-29T10:05:09;3.38;;;2.40;;
15055;SDS011;7626;42.674;23.284;2022-09-29T10:07:37;2.78;;;2.30;;
15055;SDS011;7626;42.674;23.284;2022-09-29T10:10:05;5.32;;;2.30;;
15055;SDS011;7626;42.674;23.284;2022-09-29T10:12:41;5.22;;;2.75;;
15055;SDS011;7626;42.674;23.284;2022-09-29T10:15:13;4.55;;;2.70;;
15055;SDS011;7626;42.674;23.284;2022-09-29T10:17:48;5.57;;;3.10;;
15055;SDS011;7626;42.674;23.284;2022-09-29T10:20:27;6.18;;;3.45;;
15055;SDS011;7626;42.674;23.284;2022-09-29T10:23:12;6.32;;;3.40;;
15055;SDS011;7626;42.674;23.284;2022-09-29T10:25:48;5.13;;;3.05;;
15055;SDS011;7626;42.674;23.284;2022-09-29T10:28:18;4.95;;;2.90;;
15055;SDS011;7626;42.674;23.284;2022-09-29T10:30:45;6.00;;;3.10;;
15055;SDS011;7626;42.674;23.284;2022-09-29T10:33:14;4.32;;;2.85;;
15055;SDS011;7626;42.674;23.284;2022-09-29T10:35:44;4.43;;;2.85;;
15055;SDS011;7626;42.674;23.284;2022-09-29T10:38:17;5.03;;;3.42;;
15055;SDS011;7626;42.674;23.284;2022-09-29T10:40:53;3.35;;;2.85;;
15055;SDS011;7626;42.674;23.284;2022-09-29T10:43:23;4.38;;;2.83;;
15055;SDS011;7626;42.674;23.284;2022-09-29T10:45:52;4.90;;;3.00;;
15055;SDS011;7626;42.674;23.284;2022-09-29T10:48:24;4.25;;;2.72;;
15055;SDS011;7626;42.674;23.284;2022-09-29T10:50:53;4.65;;;2.55;;
15055;SDS011;7626;42.674;23.284;2022-09-29T10:53:26;2.92;;;2.10;;
15055;SDS011;7626;42.674;23.284;2022-09-29T10:55:59;3.53;;;2.40;;
15055;SDS011;7626;42.674;23.284;2022-09-29T10:58:33;4.90;;;3.00;;
15055;SDS011;7626;42.674;23.284;2022-09-29T11:01:02;3.65;;;2.47;;
15055;SDS011;7626;42.674;23.284;2022-09-29T11:03:36;2.45;;;2.20;;
15055;SDS011;7626;42.674;23.284;2022-09-29T11:06:06;4.57;;;2.50;;
15055;SDS011;7626;42.674;23.284;2022-09-29T11:11:22;3.50;;;2.00;;
15055;SDS011;7626;42.674;23.284;2022-09-29T11:13:52;3.35;;;2.40;;
15055;SDS011;7626;42.674;23.284;2022-09-29T11:16:23;4.38;;;3.95;;
15055;SDS011;7626;42.674;23.284;2022-09-29T11:18:55;3.15;;;2.40;;
15055;SDS011;7626;42.674;23.284;2022-09-29T11:21:36;4.97;;;2.40;;
15055;SDS011;7626;42.674;23.284;2022-09-29T11:24:43;3.35;;;2.33;;
15055;SDS011;7626;42.674;23.284;2022-09-29T11:27:30;3.83;;;2.70;;
15055;SDS011;7626;42.674;23.284;2022-09-29T11:30:07;4.55;;;2.20;;
15055;SDS011;7626;42.674;23.284;2022-09-29T11:32:45;4.75;;;2.33;;
15055;SDS011;7626;42.674;23.284;2022-09-29T11:35:28;5.45;;;3.38;;
15055;SDS011;7626;42.674;23.284;2022-09-29T11:38:10;4.57;;;2.13;;
15055;SDS011;7626;42.674;23.284;2022-09-29T11:40:59;2.83;;;1.90;;
15055;SDS011;7626;42.674;23.284;2022-09-29T11:43:42;4.47;;;2.15;;
15055;SDS011;7626;42.674;23.284;2022-09-29T11:49:21;5.82;;;2.10;;
15055;SDS011;7626;42.674;23.284;2022-09-29T11:52:16;2.83;;;2.03;;
15055;SDS011;7626;42.674;23.284;2022-09-29T11:54:58;3.22;;;2.55;;
15055;SDS011;7626;42.674;23.284;2022-09-29T11:57:40;3.95;;;2.50;;
15055;SDS011;7626;42.674;23.284;2022-09-29T12:00:15;3.20;;;2.28;;
15055;SDS011;7626;42.674;23.284;2022-09-29T12:02:48;2.90;;;2.38;;
15055;SDS011;7626;42.674;23.284;2022-09-29T12:05:37;3.50;;;2.13;;
15055;SDS011;7626;42.674;23.284;2022-09-29T12:08:19;4.88;;;2.47;;
15055;SDS011;7626;42.674;23.284;2022-09-29T12:10:56;4.65;;;2.10;;
15055;SDS011;7626;42.674;23.284;2022-09-29T12:13:31;3.53;;;2.35;;
15055;SDS011;7626;42.674;23.284;2022-09-29T12:16:06;6.25;;;2.30;;
15055;SDS011;7626;42.674;23.284;2022-09-29T12:18:37;2.40;;;2.10;;
15055;SDS011;7626;42.674;23.284;2022-09-29T12:21:09;4.57;;;2.30;;
15055;SDS011;7626;42.674;23.284;2022-09-29T12:23:40;3.15;;;2.00;;
15055;SDS011;7626;42.674;23.284;2022-09-29T12:26:12;4.07;;;2.42;;
15055;SDS011;7626;42.674;23.284;2022-09-29T12:28:43;4.72;;;2.00;;
15055;SDS011;7626;42.674;23.284;2022-09-29T12:31:15;4.00;;;2.25;;
15055;SDS011;7626;42.674;23.284;2022-09-29T12:33:49;6.80;;;3.03;;
15055;SDS011;7626;42.674;23.284;2022-09-29T12:36:24;4.88;;;3.25;;
15055;SDS011;7626;42.674;23.284;2022-09-29T12:42:11;2.72;;;2.20;;
15055;SDS011;7626;42.674;23.284;2022-09-29T12:44:49;4.88;;;2.13;;
15055;SDS011;7626;42.674;23.284;2022-09-29T12:47:23;5.78;;;2.10;;
15055;SDS011;7626;42.674;23.284;2022-09-29T12:50:04;2.97;;;1.98;;
15055;SDS011;7626;42.674;23.284;2022-09-29T12:52:39;5.25;;;2.20;;
15055;SDS011;7626;42.674;23.284;2022-09-29T12:55:16;4.43;;;2.10;;
15055;SDS011;7626;42.674;23.284;2022-09-29T12:57:49;2.25;;;1.85;;
15055;SDS011;7626;42.674;23.284;2022-09-29T13:00:18;2.45;;;1.50;;
15055;SDS011;7626;42.674;23.284;2022-09-29T13:02:51;2.78;;;2.20;;
15055;SDS011;7626;42.674;23.284;2022-09-29T13:09:16;3.50;;;1.90;;
15055;SDS011;7626;42.674;23.284;2022-09-29T13:12:05;4.55;;;2.88;;
15055;SDS011;7626;42.674;23.284;2022-09-29T13:14:52;4.95;;;2.03;;
15055;SDS011;7626;42.674;23.284;2022-09-29T13:17:36;3.20;;;1.65;;
15055;SDS011;7626;42.674;23.284;2022-09-29T13:20:32;3.38;;;2.97;;
15055;SDS011;7626;42.674;23.284;2022-09-29T13:23:27;3.70;;;2.22;;
15055;SDS011;7626;42.674;23.284;2022-09-29T13:26:18;5.18;;;2.20;;
15055;SDS011;7626;42.674;23.284;2022-09-29T13:29:00;2.95;;;1.80;;
15055;SDS011;7626;42.674;23.284;2022-09-29T13:31:29;5.10;;;1.80;;
15055;SDS011;7626;42.674;23.284;2022-09-29T13:34:01;3.40;;;1.90;;
15055;SDS011;7626;42.674;23.284;2022-09-29T13:36:30;5.45;;;2.20;;
15055;SDS011;7626;42.674;23.284;2022-09-29T13:39:00;4.68;;;2.28;;
15055;SDS011;7626;42.674;23.284;2022-09-29T13:41:33;3.38;;;2.05;;
15055;SDS011;7626;42.674;23.284;2022-09-29T13:44:24;5.70;;;2.20;;
15055;SDS011;7626;42.674;23.284;2022-09-29T13:46:53;3.33;;;2.30;;
15055;SDS011;7626;42.674;23.284;2022-09-29T13:49:25;3.33;;;2.25;;
15055;SDS011;7626;42.674;23.284;2022-09-29T13:51:54;4.28;;;2.33;;
15055;SDS011;7626;42.674;23.284;2022-09-29T13:54:23;3.58;;;2.30;;
15055;SDS011;7626;42.674;23.284;2022-09-29T13:56:59;6.53;;;2.50;;
15055;SDS011;7626;42.674;23.284;2022-09-29T14:03:04;2.75;;;2.10;;
15055;SDS011;7626;42.674;23.284;2022-09-29T14:05:50;4.75;;;2.50;;
15055;SDS011;7626;42.674;23.284;2022-09-29T14:08:20;3.20;;;2.38;;
15055;SDS011;7626;42.674;23.284;2022-09-29T14:10:53;4.88;;;2.70;;
15055;SDS011;7626;42.674;23.284;2022-09-29T14:13:26;8.70;;;2.47;;
15055;SDS011;7626;42.674;23.284;2022-09-29T14:16:12;3.55;;;2.25;;
15055;SDS011;7626;42.674;23.284;2022-09-29T14:18:59;4.13;;;2.63;;
15055;SDS011;7626;42.674;23.284;2022-09-29T14:21:45;4.30;;;2.20;;
15055;SDS011;7626;42.674;23.284;2022-09-29T14:27:30;3.53;;;2.40;;
15055;SDS011;7626;42.674;23.284;2022-09-29T14:30:15;5.65;;;2.53;;
15055;SDS011;7626;42.674;23.284;2022-09-29T14:32:52;3.88;;;2.40;;
15055;SDS011;7626;42.674;23.284;2022-09-29T14:35:23;4.97;;;2.70;;
15055;SDS011;7626;42.674;23.284;2022-09-29T14:37:57;5.80;;;2.30;;
15055;SDS011;7626;42.674;23.284;2022-09-29T14:40:27;4.65;;;2.42;;
15055;SDS011;7626;42.674;23.284;2022-09-29T14:43:04;2.67;;;2.30;;
15055;SDS011;7626;42.674;23.284;2022-09-29T14:45:52;4.07;;;2.50;;
15055;SDS011;7626;42.674;23.284;2022-09-29T14:48:52;4.70;;;2.60;;
15055;SDS011;7626;42.674;23.284;2022-09-29T14:51:44;6.40;;;2.90;;
15055;SDS011;7626;42.674;23.284;2022-09-29T14:54:24;8.43;;;3.95;;
15055;SDS011;7626;42.674;23.284;2022-09-29T14:57:05;7.03;;;3.50;;
15055;SDS011;7626;42.674;23.284;2022-09-29T14:59:46;4.03;;;3.25;;
15055;SDS011;7626;42.674;23.284;2022-09-29T15:02:27;4.57;;;2.92;;
15055;SDS011;7626;42.674;23.284;2022-09-29T15:04:56;5.13;;;3.25;;
15055;SDS011;7626;42.674;23.284;2022-09-29T15:07:24;4.18;;;3.70;;
15055;SDS011;7626;42.674;23.284;2022-09-29T15:09:53;4.55;;;3.70;;
15055;SDS011;7626;42.674;23.284;2022-09-29T15:12:22;5.03;;;3.78;;
15055;SDS011;7626;42.674;23.284;2022-09-29T15:14:51;5.63;;;4.55;;
15055;SDS011;7626;42.674;23.284;2022-09-29T15:20:14;6.57;;;5.30;;
15055;SDS011;7626;42.674;23.284;2022-09-29T15:25:56;12.45;;;8.10;;
15055;SDS011;7626;42.674;23.284;2022-09-29T15:28:25;6.35;;;5.68;;
15055;SDS011;7626;42.674;23.284;2022-09-29T15:30:57;9.85;;;6.03;;
15055;SDS011;7626;42.674;23.284;2022-09-29T15:33:28;7.90;;;6.00;;
15055;SDS011;7626;42.674;23.284;2022-09-29T15:35:58;9.02;;;5.80;;
15055;SDS011;7626;42.674;23.284;2022-09-29T15:38:33;7.20;;;5.03;;
15055;SDS011;7626;42.674;23.284;2022-09-29T15:41:03;6.13;;;4.63;;
15055;SDS011;7626;42.674;23.284;2022-09-29T15:43:41;5.47;;;4.13;;
15055;SDS011;7626;42.674;23.284;2022-09-29T15:46:13;4.30;;;3.90;;